sensor_id;sensor_type;location;lat;lon;timestamp;P1;durP1;ratioP1;P2;durP2;ratioP2
2408;SDS011;8463;48.094;7.970;2022-09-30T00:01:32;1.13;;;0.90;;
2408;SDS011;8463;48.094;7.970;2022-09-30T00:03:59;1.00;;;0.87;;
2408;SDS011;8463;48.094;7.970;2022-09-30T00:06:25;0.80;;;0.70;;
2408;SDS011;8463;48.094;7.970;2022-09-30T00:08:53;1.30;;;0.80;;
2408;SDS011;8463;48.094;7.970;2022-09-30T00:11:21;1.07;;;0.97;;
2408;SDS011;8463;48.094;7.970;2022-09-30T00:13:49;0.80;;;0.70;;
2408;SDS011;8463;48.094;7.970;2022-09-30T00:16:16;1.30;;;1.20;;
2408;SDS011;8463;48.094;7.970;2022-09-30T00:18:43;1.43;;;0.90;;
2408;SDS011;8463;48.094;7.970;2022-09-30T00:21:09;1.50;;;0.77;;
2408;SDS011;8463;48.094;7.970;2022-09-30T00:23:36;0.93;;;0.93;;
2408;SDS011;8463;48.094;7.970;2022-09-30T00:26:04;1.27;;;1.10;;
2408;SDS011;8463;48.094;7.970;2022-09-30T00:28:31;0.93;;;0.93;;
2408;SDS011;8463;48.094;7.970;2022-09-30T00:30:58;1.67;;;1.57;;
2408;SDS011;8463;48.094;7.970;2022-09-30T00:33:25;2.20;;;0.90;;
2408;SDS011;8463;48.094;7.970;2022-09-30T00:35:51;0.97;;;0.90;;
2408;SDS011;8463;48.094;7.970;2022-09-30T00:38:16;1.53;;;0.97;;
2408;SDS011;8463;48.094;7.970;2022-09-30T00:40:42;1.13;;;1.03;;
2408;SDS011;8463;48.094;7.970;2022-09-30T00:43:15;1.57;;;1.00;;
2408;SDS011;8463;48.094;7.970;2022-09-30T00:45:48;1.33;;;1.20;;
2408;SDS011;8463;48.094;7.970;2022-09-30T00:48:23;1.27;;;1.17;;
2408;SDS011;8463;48.094;7.970;2022-09-30T00:50:56;2.07;;;1.30;;
2408;SDS011;8463;48.094;7.970;2022-09-30T00:56:17;3.73;;;2.20;;
2408;SDS011;8463;48.094;7.970;2022-09-30T00:59:11;3.00;;;1.30;;
2408;SDS011;8463;48.094;7.970;2022-09-30T01:02:03;1.60;;;1.37;;
2408;SDS011;8463;48.094;7.970;2022-09-30T01:04:29;1.80;;;1.40;;
2408;SDS011;8463;48.094;7.970;2022-09-30T01:07:00;2.43;;;1.43;;
2408;SDS011;8463;48.094;7.970;2022-09-30T01:09:28;2.70;;;1.40;;
2408;SDS011;8463;48.094;7.970;2022-09-30T01:11:57;1.50;;;1.33;;
2408;SDS011;8463;48.094;7.970;2022-09-30T01:14:24;1.53;;;1.43;;
2408;SDS011;8463;48.094;7.970;2022-09-30T01:33:28;2.67;;;1.70;;
2408;SDS011;8463;48.094;7.970;2022-09-30T01:41:07;4.10;;;3.70;;
2408;SDS011;8463;48.094;7.970;2022-09-30T01:43:44;2.00;;;1.30;;
2408;SDS011;8463;48.094;7.970;2022-09-30T01:46:25;2.50;;;1.87;;
2408;SDS011;8463;48.094;7.970;2022-09-30T01:54:20;1.70;;;1.57;;
2408;SDS011;8463;48.094;7.970;2022-09-30T01:56:57;1.70;;;1.50;;
2408;SDS011;8463;48.094;7.970;2022-09-30T02:02:01;1.50;;;1.40;;
2408;SDS011;8463;48.094;7.970;2022-09-30T02:04:42;1.50;;;1.40;;
2408;SDS011;8463;48.094;7.970;2022-09-30T02:07:15;2.00;;;1.80;;
2408;SDS011;8463;48.094;7.970;2022-09-30T02:09:54;1.30;;;1.20;;
2408;SDS011;8463;48.094;7.970;2022-09-30T02:12:25;3.20;;;1.90;;
2408;SDS011;8463;48.094;7.970;2022-09-30T02:14:58;1.47;;;1.37;;
2408;SDS011;8463;48.094;7.970;2022-09-30T02:17:37;3.53;;;1.40;;
2408;SDS011;8463;48.094;7.970;2022-09-30T02:20:10;1.40;;;1.30;;
2408;SDS011;8463;48.094;7.970;2022-09-30T02:22:42;1.40;;;1.30;;
2408;SDS011;8463;48.094;7.970;2022-09-30T02:25:19;3.23;;;1.20;;
2408;SDS011;8463;48.094;7.970;2022-09-30T02:27:52;1.33;;;1.17;;
2408;SDS011;8463;48.094;7.970;2022-09-30T02:30:21;1.60;;;1.50;;
2408;SDS011;8463;48.094;7.970;2022-09-30T02:32:54;2.80;;;2.37;;
2408;SDS011;8463;48.094;7.970;2022-09-30T02:35:25;3.80;;;3.30;;
2408;SDS011;8463;48.094;7.970;2022-09-30T02:38:04;1.60;;;1.50;;
2408;SDS011;8463;48.094;7.970;2022-09-30T02:40:42;1.60;;;1.47;;
2408;SDS011;8463;48.094;7.970;2022-09-30T02:43:14;3.57;;;1.80;;
2408;SDS011;8463;48.094;7.970;2022-09-30T02:45:58;1.80;;;1.27;;
2408;SDS011;8463;48.094;7.970;2022-09-30T02:51:36;1.30;;;1.13;;
2408;SDS011;8463;48.094;7.970;2022-09-30T02:54:28;1.63;;;1.30;;
2408;SDS011;8463;48.094;7.970;2022-09-30T02:57:17;5.83;;;1.73;;
2408;SDS011;8463;48.094;7.970;2022-09-30T02:59:57;2.77;;;1.60;;
2408;SDS011;8463;48.094;7.970;2022-09-30T03:02:22;1.63;;;1.27;;
2408;SDS011;8463;48.094;7.970;2022-09-30T03:04:49;1.57;;;1.20;;
2408;SDS011;8463;48.094;7.970;2022-09-30T03:07:15;2.70;;;1.27;;
2408;SDS011;8463;48.094;7.970;2022-09-30T03:09:41;1.33;;;1.23;;
2408;SDS011;8463;48.094;7.970;2022-09-30T03:12:13;1.87;;;1.27;;
2408;SDS011;8463;48.094;7.970;2022-09-30T03:18:16;1.90;;;1.37;;
2408;SDS011;8463;48.094;7.970;2022-09-30T03:28:50;1.60;;;1.50;;
2408;SDS011;8463;48.094;7.970;2022-09-30T03:31:39;1.60;;;1.50;;
2408;SDS011;8463;48.094;7.970;2022-09-30T03:34:37;2.30;;;1.77;;
2408;SDS011;8463;48.094;7.970;2022-09-30T03:37:40;1.60;;;1.50;;
2408;SDS011;8463;48.094;7.970;2022-09-30T03:43:34;2.13;;;1.97;;
2408;SDS011;8463;48.094;7.970;2022-09-30T03:48:35;2.03;;;1.30;;
2408;SDS011;8463;48.094;7.970;2022-09-30T03:51:03;2.20;;;1.40;;
2408;SDS011;8463;48.094;7.970;2022-09-30T03:53:30;1.57;;;1.20;;
2408;SDS011;8463;48.094;7.970;2022-09-30T03:56:03;1.90;;;1.70;;
2408;SDS011;8463;48.094;7.970;2022-09-30T03:58:28;1.93;;;1.57;;
2408;SDS011;8463;48.094;7.970;2022-09-30T04:00:54;1.60;;;1.50;;
2408;SDS011;8463;48.094;7.970;2022-09-30T04:03:21;2.70;;;2.47;;
2408;SDS011;8463;48.094;7.970;2022-09-30T04:05:47;2.50;;;2.07;;
2408;SDS011;8463;48.094;7.970;2022-09-30T04:08:13;1.80;;;1.70;;
2408;SDS011;8463;48.094;7.970;2022-09-30T04:10:39;3.20;;;1.90;;
2408;SDS011;8463;48.094;7.970;2022-09-30T04:13:06;1.30;;;1.20;;
2408;SDS011;8463;48.094;7.970;2022-09-30T04:15:33;2.63;;;2.20;;
2408;SDS011;8463;48.094;7.970;2022-09-30T04:17:59;1.97;;;1.80;;
2408;SDS011;8463;48.094;7.970;2022-09-30T04:20:24;2.33;;;1.90;;
2408;SDS011;8463;48.094;7.970;2022-09-30T04:22:50;4.70;;;4.30;;
2408;SDS011;8463;48.094;7.970;2022-09-30T04:25:16;7.60;;;5.50;;
2408;SDS011;8463;48.094;7.970;2022-09-30T04:27:41;6.80;;;5.20;;
2408;SDS011;8463;48.094;7.970;2022-09-30T04:30:07;6.60;;;5.50;;
2408;SDS011;8463;48.094;7.970;2022-09-30T04:32:33;6.47;;;4.80;;
2408;SDS011;8463;48.094;7.970;2022-09-30T04:34:59;5.10;;;4.43;;
2408;SDS011;8463;48.094;7.970;2022-09-30T04:37:24;3.70;;;3.33;;
2408;SDS011;8463;48.094;7.970;2022-09-30T04:39:50;3.70;;;2.50;;
2408;SDS011;8463;48.094;7.970;2022-09-30T04:42:15;4.03;;;2.70;;
2408;SDS011;8463;48.094;7.970;2022-09-30T04:44:42;1.97;;;1.77;;
2408;SDS011;8463;48.094;7.970;2022-09-30T04:47:08;3.73;;;2.07;;
2408;SDS011;8463;48.094;7.970;2022-09-30T04:49:34;4.57;;;2.30;;
2408;SDS011;8463;48.094;7.970;2022-09-30T04:52:00;2.10;;;1.60;;
2408;SDS011;8463;48.094;7.970;2022-09-30T04:54:26;1.50;;;1.40;;
2408;SDS011;8463;48.094;7.970;2022-09-30T04:56:51;2.50;;;1.97;;
2408;SDS011;8463;48.094;7.970;2022-09-30T04:59:17;1.50;;;1.40;;
2408;SDS011;8463;48.094;7.970;2022-09-30T05:01:43;2.00;;;1.60;;
2408;SDS011;8463;48.094;7.970;2022-09-30T05:04:09;1.43;;;1.33;;
2408;SDS011;8463;48.094;7.970;2022-09-30T05:06:36;4.70;;;1.60;;
2408;SDS011;8463;48.094;7.970;2022-09-30T05:09:04;1.43;;;1.30;;
2408;SDS011;8463;48.094;7.970;2022-09-30T05:11:30;1.90;;;1.80;;
2408;SDS011;8463;48.094;7.970;2022-09-30T05:13:55;2.47;;;2.00;;
2408;SDS011;8463;48.094;7.970;2022-09-30T05:16:21;1.67;;;1.57;;
2408;SDS011;8463;48.094;7.970;2022-09-30T05:18:47;1.60;;;1.50;;
2408;SDS011;8463;48.094;7.970;2022-09-30T05:21:14;2.40;;;2.30;;
2408;SDS011;8463;48.094;7.970;2022-09-30T05:23:42;1.50;;;1.40;;
2408;SDS011;8463;48.094;7.970;2022-09-30T05:26:08;2.07;;;1.87;;
2408;SDS011;8463;48.094;7.970;2022-09-30T05:28:33;2.30;;;1.80;;
2408;SDS011;8463;48.094;7.970;2022-09-30T05:31:00;1.77;;;1.67;;
2408;SDS011;8463;48.094;7.970;2022-09-30T05:33:28;2.40;;;2.07;;
2408;SDS011;8463;48.094;7.970;2022-09-30T05:35:54;1.60;;;1.50;;
2408;SDS011;8463;48.094;7.970;2022-09-30T05:38:22;3.03;;;2.07;;
2408;SDS011;8463;48.094;7.970;2022-09-30T05:40:48;6.43;;;3.13;;
2408;SDS011;8463;48.094;7.970;2022-09-30T05:43:13;4.00;;;3.60;;
2408;SDS011;8463;48.094;7.970;2022-09-30T05:45:39;6.30;;;5.70;;
2408;SDS011;8463;48.094;7.970;2022-09-30T05:48:04;5.03;;;4.53;;
2408;SDS011;8463;48.094;7.970;2022-09-30T05:50:31;3.40;;;3.10;;
2408;SDS011;8463;48.094;7.970;2022-09-30T05:52:56;3.43;;;3.20;;
2408;SDS011;8463;48.094;7.970;2022-09-30T05:55:22;3.40;;;3.07;;
2408;SDS011;8463;48.094;7.970;2022-09-30T05:57:49;2.87;;;2.57;;
2408;SDS011;8463;48.094;7.970;2022-09-30T06:00:15;4.40;;;2.80;;
2408;SDS011;8463;48.094;7.970;2022-09-30T06:02:42;2.17;;;2.07;;
2408;SDS011;8463;48.094;7.970;2022-09-30T06:05:08;2.90;;;2.00;;
2408;SDS011;8463;48.094;7.970;2022-09-30T06:07:35;2.10;;;1.90;;
2408;SDS011;8463;48.094;7.970;2022-09-30T06:10:03;2.10;;;1.93;;
2408;SDS011;8463;48.094;7.970;2022-09-30T06:12:30;3.40;;;2.00;;
2408;SDS011;8463;48.094;7.970;2022-09-30T06:14:55;2.00;;;1.80;;
2408;SDS011;8463;48.094;7.970;2022-09-30T06:17:21;3.00;;;2.13;;
2408;SDS011;8463;48.094;7.970;2022-09-30T06:19:47;2.00;;;1.67;;
2408;SDS011;8463;48.094;7.970;2022-09-30T06:22:16;2.20;;;2.00;;
2408;SDS011;8463;48.094;7.970;2022-09-30T06:24:42;2.37;;;1.30;;
2408;SDS011;8463;48.094;7.970;2022-09-30T06:27:09;2.23;;;1.83;;
2408;SDS011;8463;48.094;7.970;2022-09-30T06:29:35;1.90;;;1.80;;
2408;SDS011;8463;48.094;7.970;2022-09-30T06:32:02;3.77;;;2.10;;
2408;SDS011;8463;48.094;7.970;2022-09-30T06:34:28;2.20;;;2.10;;
2408;SDS011;8463;48.094;7.970;2022-09-30T06:36:53;4.00;;;2.73;;
2408;SDS011;8463;48.094;7.970;2022-09-30T06:39:19;5.33;;;3.47;;
2408;SDS011;8463;48.094;7.970;2022-09-30T06:41:45;5.80;;;3.47;;
2408;SDS011;8463;48.094;7.970;2022-09-30T06:44:10;3.63;;;2.67;;
2408;SDS011;8463;48.094;7.970;2022-09-30T06:46:36;1.97;;;1.83;;
2408;SDS011;8463;48.094;7.970;2022-09-30T06:49:02;2.00;;;1.73;;
2408;SDS011;8463;48.094;7.970;2022-09-30T06:51:29;2.43;;;2.00;;
2408;SDS011;8463;48.094;7.970;2022-09-30T06:54:00;1.93;;;1.73;;
2408;SDS011;8463;48.094;7.970;2022-09-30T06:56:26;3.27;;;2.20;;
2408;SDS011;8463;48.094;7.970;2022-09-30T06:58:51;3.27;;;2.20;;
2408;SDS011;8463;48.094;7.970;2022-09-30T07:01:17;1.83;;;1.70;;
2408;SDS011;8463;48.094;7.970;2022-09-30T07:03:44;2.30;;;2.03;;
2408;SDS011;8463;48.094;7.970;2022-09-30T07:06:11;4.87;;;1.57;;
2408;SDS011;8463;48.094;7.970;2022-09-30T07:08:38;1.60;;;1.50;;
2408;SDS011;8463;48.094;7.970;2022-09-30T07:11:08;2.13;;;1.93;;
2408;SDS011;8463;48.094;7.970;2022-09-30T07:13:39;2.10;;;1.63;;
2408;SDS011;8463;48.094;7.970;2022-09-30T07:16:07;2.10;;;1.70;;
2408;SDS011;8463;48.094;7.970;2022-09-30T07:18:36;2.10;;;1.70;;
2408;SDS011;8463;48.094;7.970;2022-09-30T07:21:01;3.63;;;2.10;;
2408;SDS011;8463;48.094;7.970;2022-09-30T07:23:27;3.10;;;2.63;;
2408;SDS011;8463;48.094;7.970;2022-09-30T07:25:54;2.90;;;2.50;;
2408;SDS011;8463;48.094;7.970;2022-09-30T07:28:26;2.50;;;2.20;;
2408;SDS011;8463;48.094;7.970;2022-09-30T07:30:57;1.50;;;1.40;;
2408;SDS011;8463;48.094;7.970;2022-09-30T07:33:24;2.73;;;1.73;;
2408;SDS011;8463;48.094;7.970;2022-09-30T07:35:53;2.50;;;2.00;;
2408;SDS011;8463;48.094;7.970;2022-09-30T07:38:20;2.50;;;2.30;;
2408;SDS011;8463;48.094;7.970;2022-09-30T07:40:52;2.27;;;1.90;;
2408;SDS011;8463;48.094;7.970;2022-09-30T07:43:19;2.37;;;1.60;;
2408;SDS011;8463;48.094;7.970;2022-09-30T07:45:45;1.80;;;1.70;;
2408;SDS011;8463;48.094;7.970;2022-09-30T07:48:11;2.23;;;2.00;;
2408;SDS011;8463;48.094;7.970;2022-09-30T07:50:57;1.40;;;1.30;;
2408;SDS011;8463;48.094;7.970;2022-09-30T07:53:22;2.43;;;2.00;;
2408;SDS011;8463;48.094;7.970;2022-09-30T07:55:48;2.10;;;1.60;;
2408;SDS011;8463;48.094;7.970;2022-09-30T07:58:13;2.30;;;2.00;;
2408;SDS011;8463;48.094;7.970;2022-09-30T08:00:39;1.80;;;1.70;;
2408;SDS011;8463;48.094;7.970;2022-09-30T08:03:06;1.70;;;1.60;;
2408;SDS011;8463;48.094;7.970;2022-09-30T08:05:37;2.03;;;1.93;;
2408;SDS011;8463;48.094;7.970;2022-09-30T08:08:03;1.70;;;1.60;;
2408;SDS011;8463;48.094;7.970;2022-09-30T08:10:33;1.80;;;1.70;;
2408;SDS011;8463;48.094;7.970;2022-09-30T08:12:59;1.70;;;1.57;;
2408;SDS011;8463;48.094;7.970;2022-09-30T08:15:25;1.50;;;1.40;;
2408;SDS011;8463;48.094;7.970;2022-09-30T08:17:51;1.87;;;1.77;;
2408;SDS011;8463;48.094;7.970;2022-09-30T08:20:16;1.70;;;1.60;;
2408;SDS011;8463;48.094;7.970;2022-09-30T08:22:42;2.17;;;1.50;;
2408;SDS011;8463;48.094;7.970;2022-09-30T08:25:08;2.77;;;2.07;;
2408;SDS011;8463;48.094;7.970;2022-09-30T08:27:33;1.97;;;1.70;;
2408;SDS011;8463;48.094;7.970;2022-09-30T08:29:59;3.33;;;1.90;;
2408;SDS011;8463;48.094;7.970;2022-09-30T08:32:24;1.90;;;1.70;;
2408;SDS011;8463;48.094;7.970;2022-09-30T08:34:53;2.03;;;1.83;;
2408;SDS011;8463;48.094;7.970;2022-09-30T08:37:19;1.73;;;1.63;;
2408;SDS011;8463;48.094;7.970;2022-09-30T08:39:44;2.03;;;1.80;;
2408;SDS011;8463;48.094;7.970;2022-09-30T08:42:21;1.60;;;1.50;;
2408;SDS011;8463;48.094;7.970;2022-09-30T08:48:11;2.13;;;1.83;;
2408;SDS011;8463;48.094;7.970;2022-09-30T08:51:02;1.83;;;1.50;;
2408;SDS011;8463;48.094;7.970;2022-09-30T08:53:30;1.37;;;1.27;;
2408;SDS011;8463;48.094;7.970;2022-09-30T08:56:00;2.67;;;2.37;;
2408;SDS011;8463;48.094;7.970;2022-09-30T08:58:28;1.90;;;1.70;;
2408;SDS011;8463;48.094;7.970;2022-09-30T09:01:01;1.87;;;1.77;;
2408;SDS011;8463;48.094;7.970;2022-09-30T09:03:37;1.30;;;1.20;;
2408;SDS011;8463;48.094;7.970;2022-09-30T09:08:57;1.83;;;1.73;;
2408;SDS011;8463;48.094;7.970;2022-09-30T09:14:29;1.00;;;0.90;;
2408;SDS011;8463;48.094;7.970;2022-09-30T09:19:57;1.40;;;1.30;;
2408;SDS011;8463;48.094;7.970;2022-09-30T09:22:24;1.43;;;1.33;;
2408;SDS011;8463;48.094;7.970;2022-09-30T09:24:52;3.30;;;1.70;;
2408;SDS011;8463;48.094;7.970;2022-09-30T09:27:24;1.40;;;1.30;;
2408;SDS011;8463;48.094;7.970;2022-09-30T09:30:00;1.73;;;1.50;;
2408;SDS011;8463;48.094;7.970;2022-09-30T09:32:29;1.60;;;1.50;;
2408;SDS011;8463;48.094;7.970;2022-09-30T09:35:16;1.73;;;1.63;;
2408;SDS011;8463;48.094;7.970;2022-09-30T09:54:22;1.80;;;1.70;;
2408;SDS011;8463;48.094;7.970;2022-09-30T09:56:52;2.43;;;2.23;;
2408;SDS011;8463;48.094;7.970;2022-09-30T09:59:18;1.40;;;1.30;;
2408;SDS011;8463;48.094;7.970;2022-09-30T10:04:16;2.50;;;2.30;;
2408;SDS011;8463;48.094;7.970;2022-09-30T10:07:01;2.40;;;2.20;;
2408;SDS011;8463;48.094;7.970;2022-09-30T10:09:38;3.00;;;2.77;;
2408;SDS011;8463;48.094;7.970;2022-09-30T10:14:31;3.07;;;1.80;;
2408;SDS011;8463;48.094;7.970;2022-09-30T10:17:00;2.10;;;2.00;;
2408;SDS011;8463;48.094;7.970;2022-09-30T10:19:29;2.40;;;2.03;;
2408;SDS011;8463;48.094;7.970;2022-09-30T10:24:32;2.50;;;2.20;;
2408;SDS011;8463;48.094;7.970;2022-09-30T10:26:59;3.63;;;2.00;;
2408;SDS011;8463;48.094;7.970;2022-09-30T10:31:56;1.73;;;1.63;;
2408;SDS011;8463;48.094;7.970;2022-09-30T10:34:31;2.00;;;1.90;;
2408;SDS011;8463;48.094;7.970;2022-09-30T10:37:00;2.60;;;2.00;;
2408;SDS011;8463;48.094;7.970;2022-09-30T10:42:02;3.67;;;2.10;;
2408;SDS011;8463;48.094;7.970;2022-09-30T10:44:32;2.13;;;1.83;;
2408;SDS011;8463;48.094;7.970;2022-09-30T10:47:18;2.20;;;2.00;;
2408;SDS011;8463;48.094;7.970;2022-09-30T10:52:28;3.20;;;2.63;;
2408;SDS011;8463;48.094;7.970;2022-09-30T10:54:57;2.20;;;2.00;;
2408;SDS011;8463;48.094;7.970;2022-09-30T10:57:25;3.17;;;2.97;;
2408;SDS011;8463;48.094;7.970;2022-09-30T11:00:00;2.47;;;2.27;;
2408;SDS011;8463;48.094;7.970;2022-09-30T11:03:33;2.47;;;2.27;;
2408;SDS011;8463;48.094;7.970;2022-09-30T11:05:35;2.67;;;2.40;;
2408;SDS011;8463;48.094;7.970;2022-09-30T11:15:59;6.37;;;2.30;;
2408;SDS011;8463;48.094;7.970;2022-09-30T11:37:31;2.20;;;1.83;;
2408;SDS011;8463;48.094;7.970;2022-09-30T11:42:47;3.10;;;2.90;;
2408;SDS011;8463;48.094;7.970;2022-09-30T11:51:25;13.83;;;2.63;;
2408;SDS011;8463;48.094;7.970;2022-09-30T11:54:16;2.80;;;2.60;;
2408;SDS011;8463;48.094;7.970;2022-09-30T11:59:45;2.63;;;2.43;;
2408;SDS011;8463;48.094;7.970;2022-09-30T12:05:47;3.07;;;2.80;;
2408;SDS011;8463;48.094;7.970;2022-09-30T12:07:57;2.70;;;2.50;;
2408;SDS011;8463;48.094;7.970;2022-09-30T12:10:32;3.27;;;3.03;;
2408;SDS011;8463;48.094;7.970;2022-09-30T12:13:15;3.83;;;2.87;;
2408;SDS011;8463;48.094;7.970;2022-09-30T12:15:44;3.17;;;2.83;;
2408;SDS011;8463;48.094;7.970;2022-09-30T12:18:54;2.60;;;2.40;;
2408;SDS011;8463;48.094;7.970;2022-09-30T12:21:15;2.53;;;2.33;;
2408;SDS011;8463;48.094;7.970;2022-09-30T12:23:48;3.00;;;2.30;;
2408;SDS011;8463;48.094;7.970;2022-09-30T12:26:23;3.10;;;2.80;;
2408;SDS011;8463;48.094;7.970;2022-09-30T12:31:52;2.87;;;2.67;;
2408;SDS011;8463;48.094;7.970;2022-09-30T12:45:51;3.50;;;3.20;;
2408;SDS011;8463;48.094;7.970;2022-09-30T12:48:38;3.23;;;2.73;;
2408;SDS011;8463;48.094;7.970;2022-09-30T12:51:08;4.63;;;2.53;;
2408;SDS011;8463;48.094;7.970;2022-09-30T12:53:45;2.50;;;2.30;;
2408;SDS011;8463;48.094;7.970;2022-09-30T12:56:20;2.93;;;2.73;;
2408;SDS011;8463;48.094;7.970;2022-09-30T12:58:52;2.87;;;2.67;;
2408;SDS011;8463;48.094;7.970;2022-09-30T13:01:29;2.40;;;2.20;;
2408;SDS011;8463;48.094;7.970;2022-09-30T13:11:44;2.13;;;1.90;;
2408;SDS011;8463;48.094;7.970;2022-09-30T13:19:50;1.60;;;1.13;;
2408;SDS011;8463;48.094;7.970;2022-09-30T13:27:35;1.40;;;1.30;;
2408;SDS011;8463;48.094;7.970;2022-09-30T13:43:18;1.80;;;1.20;;
2408;SDS011;8463;48.094;7.970;2022-09-30T13:46:15;2.60;;;1.53;;
2408;SDS011;8463;48.094;7.970;2022-09-30T13:48:53;2.13;;;1.60;;
2408;SDS011;8463;48.094;7.970;2022-09-30T13:51:23;2.37;;;2.17;;
2408;SDS011;8463;48.094;7.970;2022-09-30T13:53:52;2.30;;;1.70;;
2408;SDS011;8463;48.094;7.970;2022-09-30T13:56:21;1.80;;;1.70;;
2408;SDS011;8463;48.094;7.970;2022-09-30T14:04:30;1.50;;;1.40;;
2408;SDS011;8463;48.094;7.970;2022-09-30T14:12:37;1.97;;;1.87;;
2408;SDS011;8463;48.094;7.970;2022-09-30T14:15:34;1.73;;;1.60;;
2408;SDS011;8463;48.094;7.970;2022-09-30T14:23:45;1.53;;;1.43;;
2408;SDS011;8463;48.094;7.970;2022-09-30T14:26:14;1.33;;;1.23;;
2408;SDS011;8463;48.094;7.970;2022-09-30T14:31:41;1.00;;;1.00;;
2408;SDS011;8463;48.094;7.970;2022-09-30T14:34:09;1.20;;;1.10;;
2408;SDS011;8463;48.094;7.970;2022-09-30T14:36:40;1.27;;;1.17;;
2408;SDS011;8463;48.094;7.970;2022-09-30T14:39:09;1.50;;;1.40;;
2408;SDS011;8463;48.094;7.970;2022-09-30T14:41:45;2.60;;;1.40;;
2408;SDS011;8463;48.094;7.970;2022-09-30T14:44:14;2.10;;;1.63;;
2408;SDS011;8463;48.094;7.970;2022-09-30T14:46:52;1.80;;;1.50;;
2408;SDS011;8463;48.094;7.970;2022-09-30T14:49:26;1.63;;;1.50;;
2408;SDS011;8463;48.094;7.970;2022-09-30T14:51:58;1.53;;;1.40;;
2408;SDS011;8463;48.094;7.970;2022-09-30T14:54:27;2.07;;;1.50;;
2408;SDS011;8463;48.094;7.970;2022-09-30T14:56:54;2.00;;;1.67;;
2408;SDS011;8463;48.094;7.970;2022-09-30T14:59:22;1.20;;;1.10;;
2408;SDS011;8463;48.094;7.970;2022-09-30T15:01:52;2.13;;;1.30;;
2408;SDS011;8463;48.094;7.970;2022-09-30T15:04:30;1.53;;;1.27;;
2408;SDS011;8463;48.094;7.970;2022-09-30T15:06:58;1.33;;;1.23;;
2408;SDS011;8463;48.094;7.970;2022-09-30T15:09:31;1.50;;;1.23;;
2408;SDS011;8463;48.094;7.970;2022-09-30T15:12:09;1.40;;;1.30;;
2408;SDS011;8463;48.094;7.970;2022-09-30T15:14:53;1.30;;;1.20;;
2408;SDS011;8463;48.094;7.970;2022-09-30T15:19:51;1.37;;;1.27;;
2408;SDS011;8463;48.094;7.970;2022-09-30T15:22:19;2.23;;;1.73;;
2408;SDS011;8463;48.094;7.970;2022-09-30T15:24:47;1.40;;;1.30;;
2408;SDS011;8463;48.094;7.970;2022-09-30T15:27:26;1.77;;;1.67;;
2408;SDS011;8463;48.094;7.970;2022-09-30T15:29:54;2.23;;;1.93;;
2408;SDS011;8463;48.094;7.970;2022-09-30T15:32:22;3.80;;;2.40;;
2408;SDS011;8463;48.094;7.970;2022-09-30T15:34:49;4.77;;;1.60;;
2408;SDS011;8463;48.094;7.970;2022-09-30T15:37:18;2.20;;;2.00;;
2408;SDS011;8463;48.094;7.970;2022-09-30T15:39:47;2.10;;;1.60;;
2408;SDS011;8463;48.094;7.970;2022-09-30T15:42:33;2.03;;;1.83;;
2408;SDS011;8463;48.094;7.970;2022-09-30T15:45:47;2.00;;;1.70;;
2408;SDS011;8463;48.094;7.970;2022-09-30T15:47:59;2.30;;;2.10;;
2408;SDS011;8463;48.094;7.970;2022-09-30T15:50:49;2.77;;;2.13;;
2408;SDS011;8463;48.094;7.970;2022-09-30T15:53:21;3.50;;;2.13;;
2408;SDS011;8463;48.094;7.970;2022-09-30T15:55:50;2.67;;;2.43;;
2408;SDS011;8463;48.094;7.970;2022-09-30T16:03:55;2.40;;;1.80;;
2408;SDS011;8463;48.094;7.970;2022-09-30T16:06:42;2.03;;;1.90;;
2408;SDS011;8463;48.094;7.970;2022-09-30T16:11:42;2.07;;;1.87;;
2408;SDS011;8463;48.094;7.970;2022-09-30T16:14:19;1.67;;;1.57;;
2408;SDS011;8463;48.094;7.970;2022-09-30T16:16:47;1.67;;;1.57;;
2408;SDS011;8463;48.094;7.970;2022-09-30T16:19:17;2.87;;;1.80;;
2408;SDS011;8463;48.094;7.970;2022-09-30T16:21:47;1.70;;;1.60;;
2408;SDS011;8463;48.094;7.970;2022-09-30T16:25:00;1.50;;;1.40;;
2408;SDS011;8463;48.094;7.970;2022-09-30T16:27:15;2.73;;;2.20;;
2408;SDS011;8463;48.094;7.970;2022-09-30T16:29:50;1.97;;;1.80;;
2408;SDS011;8463;48.094;7.970;2022-09-30T16:32:16;2.30;;;1.67;;
2408;SDS011;8463;48.094;7.970;2022-09-30T16:34:42;1.40;;;1.30;;
2408;SDS011;8463;48.094;7.970;2022-09-30T16:37:14;2.00;;;1.63;;
2408;SDS011;8463;48.094;7.970;2022-09-30T16:39:43;1.37;;;1.27;;
2408;SDS011;8463;48.094;7.970;2022-09-30T16:42:12;6.30;;;1.40;;
2408;SDS011;8463;48.094;7.970;2022-09-30T16:44:39;2.80;;;1.50;;
2408;SDS011;8463;48.094;7.970;2022-09-30T16:47:06;2.27;;;1.60;;
2408;SDS011;8463;48.094;7.970;2022-09-30T16:49:33;1.83;;;1.40;;
2408;SDS011;8463;48.094;7.970;2022-09-30T16:51:59;2.20;;;1.93;;
2408;SDS011;8463;48.094;7.970;2022-09-30T16:54:25;3.70;;;3.40;;
2408;SDS011;8463;48.094;7.970;2022-09-30T16:56:50;2.90;;;2.40;;
2408;SDS011;8463;48.094;7.970;2022-09-30T16:59:18;2.40;;;2.20;;
2408;SDS011;8463;48.094;7.970;2022-09-30T17:01:44;2.70;;;2.20;;
2408;SDS011;8463;48.094;7.970;2022-09-30T17:04:10;2.37;;;2.00;;
2408;SDS011;8463;48.094;7.970;2022-09-30T17:06:35;2.37;;;1.90;;
2408;SDS011;8463;48.094;7.970;2022-09-30T17:09:02;2.10;;;1.50;;
2408;SDS011;8463;48.094;7.970;2022-09-30T17:11:29;2.83;;;1.80;;
2408;SDS011;8463;48.094;7.970;2022-09-30T17:13:59;1.90;;;1.77;;
2408;SDS011;8463;48.094;7.970;2022-09-30T17:16:27;2.40;;;1.60;;
2408;SDS011;8463;48.094;7.970;2022-09-30T17:18:53;2.70;;;1.80;;
2408;SDS011;8463;48.094;7.970;2022-09-30T17:21:20;2.30;;;2.10;;
2408;SDS011;8463;48.094;7.970;2022-09-30T17:23:47;2.30;;;2.13;;
2408;SDS011;8463;48.094;7.970;2022-09-30T17:26:13;1.97;;;1.87;;
2408;SDS011;8463;48.094;7.970;2022-09-30T17:28:39;2.63;;;2.43;;
2408;SDS011;8463;48.094;7.970;2022-09-30T17:31:06;3.07;;;2.40;;
2408;SDS011;8463;48.094;7.970;2022-09-30T17:33:33;2.97;;;1.80;;
2408;SDS011;8463;48.094;7.970;2022-09-30T17:36:04;2.27;;;1.57;;
2408;SDS011;8463;48.094;7.970;2022-09-30T17:38:35;3.63;;;3.00;;
2408;SDS011;8463;48.094;7.970;2022-09-30T17:41:01;2.77;;;2.57;;
2408;SDS011;8463;48.094;7.970;2022-09-30T17:43:46;2.53;;;2.27;;
2408;SDS011;8463;48.094;7.970;2022-09-30T17:46:12;4.57;;;3.37;;
2408;SDS011;8463;48.094;7.970;2022-09-30T17:48:45;3.37;;;2.90;;
2408;SDS011;8463;48.094;7.970;2022-09-30T17:51:12;3.97;;;3.27;;
2408;SDS011;8463;48.094;7.970;2022-09-30T17:53:40;4.00;;;2.60;;
2408;SDS011;8463;48.094;7.970;2022-09-30T17:56:07;3.70;;;3.40;;
2408;SDS011;8463;48.094;7.970;2022-09-30T17:58:40;3.20;;;2.53;;
2408;SDS011;8463;48.094;7.970;2022-09-30T18:01:09;3.27;;;2.63;;
2408;SDS011;8463;48.094;7.970;2022-09-30T18:03:35;6.07;;;3.40;;
2408;SDS011;8463;48.094;7.970;2022-09-30T18:06:01;5.37;;;4.10;;
2408;SDS011;8463;48.094;7.970;2022-09-30T18:08:27;4.07;;;3.10;;
2408;SDS011;8463;48.094;7.970;2022-09-30T18:10:53;5.63;;;3.17;;
2408;SDS011;8463;48.094;7.970;2022-09-30T18:13:21;3.37;;;2.73;;
2408;SDS011;8463;48.094;7.970;2022-09-30T18:15:47;3.90;;;3.10;;
2408;SDS011;8463;48.094;7.970;2022-09-30T18:18:13;2.47;;;2.20;;
2408;SDS011;8463;48.094;7.970;2022-09-30T18:20:43;10.03;;;7.43;;
2408;SDS011;8463;48.094;7.970;2022-09-30T18:23:09;18.13;;;12.70;;
2408;SDS011;8463;48.094;7.970;2022-09-30T18:25:36;6.67;;;3.90;;
2408;SDS011;8463;48.094;7.970;2022-09-30T18:28:03;9.40;;;5.17;;
2408;SDS011;8463;48.094;7.970;2022-09-30T18:30:32;13.03;;;8.27;;
2408;SDS011;8463;48.094;7.970;2022-09-30T18:32:58;15.10;;;9.70;;
2408;SDS011;8463;48.094;7.970;2022-09-30T18:35:24;9.83;;;8.20;;
2408;SDS011;8463;48.094;7.970;2022-09-30T18:37:50;9.70;;;7.60;;
2408;SDS011;8463;48.094;7.970;2022-09-30T18:40:18;6.70;;;5.77;;
2408;SDS011;8463;48.094;7.970;2022-09-30T18:42:45;4.50;;;4.00;;
2408;SDS011;8463;48.094;7.970;2022-09-30T18:45:12;2.70;;;1.93;;
2408;SDS011;8463;48.094;7.970;2022-09-30T18:47:39;2.10;;;1.90;;
2408;SDS011;8463;48.094;7.970;2022-09-30T18:50:10;2.07;;;1.97;;
2408;SDS011;8463;48.094;7.970;2022-09-30T18:52:37;2.37;;;2.17;;
2408;SDS011;8463;48.094;7.970;2022-09-30T18:55:04;3.20;;;2.77;;
2408;SDS011;8463;48.094;7.970;2022-09-30T18:57:31;3.17;;;2.40;;
2408;SDS011;8463;48.094;7.970;2022-09-30T18:59:58;3.00;;;2.47;;
2408;SDS011;8463;48.094;7.970;2022-09-30T19:02:25;4.20;;;2.93;;
2408;SDS011;8463;48.094;7.970;2022-09-30T19:04:52;3.27;;;2.97;;
2408;SDS011;8463;48.094;7.970;2022-09-30T19:07:18;2.73;;;2.53;;
2408;SDS011;8463;48.094;7.970;2022-09-30T19:09:44;6.43;;;4.20;;